Antonina, Brazil
Current Conditions -  °F | °C
As of 10:00 AM on Sunday 21 Dec 2014 (Local Time) from SBCT Reporting Station
Broken Clouds Broken Clouds  
Wind Chill: 79°   Ceiling: 3000
Heat Index: 81°   Visibility: 6mi
Dew Point: 64°   Wind: 20mph
Humidity: 61%   Direction: 310°NW
Pressure: 29.91"   Gusts: NA
Location:  25.43°S, 48.71°W
Report Text: SBCT 211200Z 31017KT 9999 BKN030 26/18 Q1013
Loading
Personal Weather Stations






























Interactive Weather Map New forecast layout! Learn more

10-Day Weather Forecast

Advertisements
Track Severe Weather on mobile